Great Yeldham, United Kingdom
Current Conditions -  °F | °C
As of 3:50 PM on Thursday 23 Oct 2014 (Local Time) from EGSS Reporting Station
Broken Clouds Broken Clouds  
Wind Chill: 59°   Ceiling: 2200
Heat Index: 59°   Visibility: 6mi
Dew Point: 54°   Wind: 15mph
Humidity: 82%   Direction: 220°SW
Pressure: 30.03"   Gusts: NA
Location:  52.01°N, 0.57°E
Report Text: EGSS 231450Z 22013KT 9999 BKN022 15/12 Q1017
Loading
Personal Weather Stations






























Interactive Weather Map
Tropical Storm Tracking
New forecast layout! Learn more

10-Day Weather Forecast

Advertisements
Track Severe Weather on mobile